Time;durP1;ratioP1;P1;durP2;ratioP2;P2;SDS_P1;SDS_P2;PMS_P1;PMS_P2;Temp;Humidity;BMP_temperature;BMP_pressure;BME280_temperature;BME280_humidity;BME280_pressure;Samples;Min_cycle;Max_cycle;Signal;HPM_P1;HPM_P2
2023/10/13 00:07:13;;;;;;;37.00;21.97;;;8.60;99.90;;;;;;4602749;30;20808;-84
2023/10/13 00:32:54;;;;;;;32.20;19.13;;;8.40;99.90;;;;;;4673651;29;20556;-85
2023/10/13 00:58:21;;;;;;;32.47;19.23;;;8.00;99.90;;;;;;4780575;28;21147;-84
2023/10/13 01:02:40;;;;;;;29.73;18.53;;;7.90;99.90;;;;;;4789279;28;20234;-84
2023/10/13 01:53:22;;;;;;;29.23;15.90;;;7.20;99.90;;;;;;4682919;29;20686;-86
2023/10/13 02:14:25;;;;;;;22.77;15.10;;;7.10;99.90;;;;;;4759837;29;20197;-84
2023/10/13 02:18:44;;;;;;;24.93;15.50;;;7.00;99.90;;;;;;4707201;29;20377;-84
2023/10/13 02:39:41;;;;;;;23.17;14.60;;;6.80;99.90;;;;;;4662655;29;21174;-83
2023/10/13 03:00:11;;;;;;;28.43;14.27;;;6.50;99.90;;;;;;4635473;29;20259;-84
2023/10/13 03:04:38;;;;;;;24.33;14.97;;;6.40;99.90;;;;;;4504056;30;20513;-84
2023/10/13 03:25:13;;;;;;;23.63;14.03;;;6.30;99.90;;;;;;4621143;30;20210;-85
2023/10/13 03:55:35;;;;;;;26.63;14.00;;;6.00;99.90;;;;;;4720859;29;20229;-85
2023/10/13 04:16:14;;;;;;;22.77;12.70;;;5.90;99.90;;;;;;4749526;29;20229;-84
2023/10/13 04:20:32;;;;;;;18.00;12.53;;;5.80;99.90;;;;;;4666933;29;20502;-86
2023/10/13 04:41:22;;;;;;;19.50;12.57;;;5.90;99.90;;;;;;4841278;28;20189;-85
2023/10/13 05:47:01;;;;;;;29.80;16.20;;;7.00;99.90;;;;;;4895791;28;20291;-86
2023/10/13 07:08:31;;;;;;;23.53;13.90;;;10.00;99.90;;;;;;4763418;29;20306;-88
2023/10/13 07:39:20;;;;;;;23.27;12.70;;;11.20;99.90;;;;;;4908701;28;20321;-88
2023/10/13 07:43:23;;;;;;;15.40;10.50;;;11.30;99.90;;;;;;4849571;28;20693;-85
2023/10/13 08:44:31;;;;;;;10.20;6.40;;;13.00;99.90;;;;;;4751951;29;20212;-87
2023/10/13 09:10:32;;;;;;;19.00;8.23;;;13.70;99.90;;;;;;4569453;30;20261;-83
2023/10/13 09:35:40;;;;;;;16.67;9.37;;;14.20;99.90;;;;;;4594151;30;20292;-84
2023/10/13 10:51:47;;;;;;;13.30;8.43;;;16.20;99.90;;;;;;4695953;29;20224;-88
2023/10/13 11:17:16;;;;;;;14.40;7.80;;;17.20;99.90;;;;;;4680776;29;20255;-86
2023/10/13 11:21:31;;;;;;;13.93;7.50;;;17.40;99.90;;;;;;4593309;29;20424;-83
2023/10/13 11:41:53;;;;;;;12.17;7.87;;;17.30;99.90;;;;;;4549686;30;20786;-83
2023/10/13 12:07:19;;;;;;;10.97;7.63;;;17.10;99.90;;;;;;4558725;30;20710;-84
2023/10/13 12:38:16;;;;;;;13.97;8.07;;;17.70;99.90;;;;;;4536288;30;20550;-80
2023/10/13 13:03:29;;;;;;;14.23;8.73;;;18.00;99.90;;;;;;4594193;29;20288;-88
2023/10/13 13:24:01;;;;;;;13.07;8.67;;;18.00;99.90;;;;;;4675112;29;20608;-86
2023/10/13 13:28:24;;;;;;;13.43;8.87;;;18.10;99.90;;;;;;4590970;29;20870;-81
2023/10/13 13:54:27;;;;;;;12.13;8.70;;;18.10;99.90;;;;;;4590063;29;20231;-82
2023/10/13 14:19:41;;;;;;;14.93;9.67;;;18.10;99.90;;;;;;4459750;30;20248;-81
2023/10/13 14:39:51;;;;;;;17.07;10.40;;;17.70;99.90;;;;;;4488965;30;20684;-81
2023/10/13 15:09:50;;;;;;;15.23;10.57;;;17.50;99.90;;;;;;4591449;29;21190;-85
2023/10/13 15:30:48;;;;;;;17.93;11.17;;;17.10;99.90;;;;;;4550302;30;20674;-83
2023/10/13 15:50:57;;;;;;;18.07;12.27;;;16.70;99.90;;;;;;4528719;30;20226;-82
2023/10/13 16:16:23;;;;;;;21.27;14.30;;;16.40;99.90;;;;;;4582977;30;20272;-84
2023/10/13 16:46:12;;;;;;;23.23;13.10;;;16.80;99.90;;;;;;4528315;30;20784;-84
2023/10/13 17:11:50;;;;;;;19.20;13.17;;;16.20;99.90;;;;;;4703534;29;21139;-83
2023/10/13 17:37:17;;;;;;;20.37;13.70;;;16.30;99.90;;;;;;4614780;29;20220;-84
2023/10/13 18:12:21;;;;;;;19.43;15.00;;;16.20;99.90;;;;;;4516537;30;20764;-82
2023/10/13 18:33:19;;;;;;;19.83;15.10;;;16.20;99.90;;;;;;4653907;29;20271;-85
2023/10/13 18:53:41;;;;;;;20.93;16.03;;;16.30;99.90;;;;;;4707342;29;20252;-82
2023/10/13 18:58:00;;;;;;;20.60;15.23;;;16.30;99.90;;;;;;4567525;29;20539;-84
2023/10/13 19:13:58;;;;;;;19.97;16.77;;;16.40;99.90;;;;;;4625294;30;20217;-84
2023/10/13 19:48:45;;;;;;;20.57;15.63;;;16.30;99.90;;;;;;4673319;29;20551;-84
2023/10/13 20:09:43;;;;;;;18.83;13.37;;;16.50;99.90;;;;;;4726488;29;20199;-86
2023/10/13 21:25:48;;;;;;;17.10;13.60;;;15.80;99.90;;;;;;4930518;28;20235;-84
2023/10/13 21:51:08;;;;;;;15.13;12.13;;;16.00;99.90;;;;;;4871670;28;20263;-85
2023/10/13 22:41:22;;;;;;;13.20;10.37;;;16.20;99.90;;;;;;4627618;29;20260;-86
2023/10/13 23:07:16;;;;;;;13.43;11.13;;;15.90;99.90;;;;;;4650706;29;20386;-84
2023/10/13 23:31:58;;;;;;;13.13;10.30;;;15.30;99.90;;;;;;4616293;29;20220;-85
2023/10/13 23:52:32;;;;;;;17.50;11.63;;;15.20;99.90;;;;;;4737156;29;21295;-82
